createdAt,value
2022-08-17T00:00:49.208Z,20.60
2022-08-17T00:02:26.651Z,20.60
2022-08-17T00:03:51.308Z,20.60
2022-08-17T00:05:16.088Z,20.50
2022-08-17T00:06:38.124Z,20.50
2022-08-17T00:08:00.362Z,20.50
2022-08-17T00:09:22.444Z,20.60
2022-08-17T00:10:46.337Z,20.50
2022-08-17T00:12:34.982Z,20.50
2022-08-17T00:13:56.029Z,20.20
2022-08-17T00:15:21.092Z,20.50
2022-08-17T00:16:52.589Z,20.50
2022-08-17T00:18:58.115Z,20.50
2022-08-17T00:20:01.972Z,20.50
2022-08-17T00:21:25.256Z,20.50
2022-08-17T00:22:47.794Z,20.50
2022-08-17T00:24:10.070Z,20.50
2022-08-17T00:25:32.257Z,20.50
2022-08-17T00:26:54.413Z,20.40
2022-08-17T00:28:17.154Z,20.40
2022-08-17T00:29:39.371Z,20.40
2022-08-17T00:31:01.971Z,20.40
2022-08-17T00:33:11.986Z,20.40
2022-08-17T00:34:08.739Z,20.40
2022-08-17T00:35:30.952Z,20.40
2022-08-17T00:36:53.111Z,20.40
2022-08-17T00:38:15.880Z,20.40
2022-08-17T00:39:38.165Z,20.40
2022-08-17T00:41:07.030Z,20.30
2022-08-17T00:42:31.272Z,20.50
2022-08-17T00:44:00.090Z,20.30
2022-08-17T00:45:23.140Z,20.30
2022-08-17T00:46:45.349Z,20.20
2022-08-17T00:48:11.534Z,20.20
2022-08-17T00:49:49.809Z,20.20
2022-08-17T00:51:32.088Z,20.20
2022-08-17T00:52:56.386Z,20.20
2022-08-17T00:54:23.962Z,20.20
2022-08-17T00:55:46.810Z,20.20
2022-08-17T00:57:18.370Z,20.20
2022-08-17T00:58:41.090Z,20.20
2022-08-17T01:00:15.952Z,19.80
2022-08-17T01:02:45.870Z,20.20
2022-08-17T01:04:08.679Z,20.10
2022-08-17T01:05:33.133Z,20.20
2022-08-17T01:06:56.621Z,20.20
2022-08-17T01:08:23.368Z,20.10
2022-08-17T01:09:45.584Z,20.10
2022-08-17T01:11:08.418Z,20.10
2022-08-17T01:12:31.382Z,20.10
2022-08-17T01:13:53.912Z,20.20
2022-08-17T01:15:16.732Z,20.10
2022-08-17T01:16:39.505Z,20.10
2022-08-17T01:18:01.878Z,20.10
2022-08-17T01:19:29.111Z,20.10
2022-08-17T01:20:53.811Z,20.10
2022-08-17T01:22:22.300Z,20.10
2022-08-17T01:23:44.379Z,20.10
2022-08-17T01:25:08.911Z,20.10
2022-08-17T01:26:35.780Z,20.10
2022-08-17T01:27:57.958Z,20.10
2022-08-17T01:29:21.654Z,20.10
2022-08-17T01:30:58.596Z,20.10
2022-08-17T01:32:21.696Z,20.10
2022-08-17T01:33:43.776Z,20.10
2022-08-17T01:35:07.402Z,20.10
2022-08-17T01:36:29.468Z,20.10
2022-08-17T01:37:52.019Z,20.00
2022-08-17T01:39:35.065Z,20.10
2022-08-17T01:41:04.734Z,20.00
2022-08-17T01:42:58.601Z,20.00
2022-08-17T01:44:21.808Z,20.00
2022-08-17T01:45:47.744Z,20.00
2022-08-17T01:47:09.750Z,20.00
2022-08-17T01:48:34.202Z,20.00
2022-08-17T01:49:56.432Z,20.00
2022-08-17T01:51:19.776Z,19.90
2022-08-17T01:52:44.704Z,19.90
2022-08-17T01:54:11.632Z,19.90
2022-08-17T01:55:55.574Z,19.90
2022-08-17T01:57:17.970Z,19.90
2022-08-17T01:58:42.372Z,19.90
2022-08-17T02:00:09.846Z,19.90
2022-08-17T02:01:33.795Z,19.90
2022-08-17T02:02:56.113Z,19.90
2022-08-17T02:04:18.314Z,19.80
2022-08-17T02:05:40.565Z,19.80
2022-08-17T02:07:02.641Z,19.80
2022-08-17T02:08:38.896Z,19.80
2022-08-17T02:10:01.695Z,19.80
2022-08-17T02:11:24.785Z,19.90
2022-08-17T02:12:46.843Z,19.70
2022-08-17T02:14:10.678Z,19.80
2022-08-17T02:15:34.618Z,19.80
2022-08-17T02:16:56.650Z,19.80
2022-08-17T02:18:18.763Z,19.80
2022-08-17T02:19:41.251Z,19.80
2022-08-17T02:21:04.064Z,19.80
2022-08-17T02:22:27.038Z,19.80
2022-08-17T02:23:50.068Z,19.80
2022-08-17T02:25:16.528Z,19.80
2022-08-17T02:26:38.751Z,19.70
2022-08-17T02:28:00.884Z,19.70
2022-08-17T02:29:22.991Z,19.70
2022-08-17T02:31:01.639Z,19.70
2022-08-17T02:32:28.132Z,19.70
2022-08-17T02:34:00.317Z,19.80
2022-08-17T02:35:27.261Z,19.70
2022-08-17T02:36:49.298Z,19.70
2022-08-17T02:38:11.394Z,19.70
2022-08-17T02:39:33.524Z,19.70
2022-08-17T02:40:55.704Z,19.70
2022-08-17T02:42:18.420Z,19.60
2022-08-17T02:43:40.798Z,19.60
2022-08-17T02:45:04.297Z,19.60
2022-08-17T02:46:26.725Z,19.60
2022-08-17T02:47:50.290Z,19.50
2022-08-17T02:49:12.401Z,19.50
2022-08-17T02:50:34.441Z,19.50
2022-08-17T02:51:58.360Z,19.50
2022-08-17T02:53:20.444Z,19.50
2022-08-17T02:54:42.602Z,19.50
2022-08-17T02:56:04.855Z,19.50
2022-08-17T02:57:27.100Z,19.50
2022-08-17T02:58:49.203Z,19.50
2022-08-17T03:00:19.108Z,19.50
2022-08-17T03:01:41.296Z,19.50
2022-08-17T03:03:06.057Z,19.50
2022-08-17T03:04:28.163Z,19.60
2022-08-17T03:05:51.420Z,19.50
2022-08-17T03:07:13.575Z,19.50
2022-08-17T03:08:37.370Z,19.50
2022-08-17T03:09:59.488Z,19.50
2022-08-17T03:11:21.989Z,19.40
2022-08-17T03:12:46.758Z,19.40
2022-08-17T03:14:08.915Z,19.40
2022-08-17T03:15:33.639Z,19.40
2022-08-17T03:16:55.699Z,19.40
2022-08-17T03:18:25.002Z,19.40
2022-08-17T03:19:48.179Z,19.40
2022-08-17T03:21:10.497Z,19.40
2022-08-17T03:22:53.094Z,19.40
2022-08-17T03:24:15.719Z,19.30
2022-08-17T03:25:43.482Z,19.40
2022-08-17T03:27:06.201Z,19.30
2022-08-17T03:28:28.272Z,19.30
2022-08-17T03:29:50.341Z,19.30
2022-08-17T03:31:12.461Z,19.30
2022-08-17T03:32:46.921Z,19.30
2022-08-17T03:34:09.047Z,19.00
2022-08-17T03:35:34.958Z,19.40
2022-08-17T03:36:58.917Z,19.30
2022-08-17T03:38:22.007Z,19.50
2022-08-17T03:39:45.404Z,19.40
2022-08-17T03:41:08.013Z,19.40
2022-08-17T03:42:31.804Z,19.40
2022-08-17T03:43:54.652Z,19.40
2022-08-17T03:45:39.194Z,19.40
2022-08-17T03:47:20.066Z,19.40
2022-08-17T03:49:00.844Z,19.40
2022-08-17T03:50:41.686Z,19.40
2022-08-17T03:52:22.697Z,19.40
2022-08-17T03:54:12.513Z,19.40
2022-08-17T03:55:53.731Z,19.40
2022-08-17T03:57:16.626Z,19.40
2022-08-17T03:58:39.025Z,19.50
2022-08-17T04:00:01.120Z,19.50
2022-08-17T04:01:23.392Z,19.50
2022-08-17T04:02:45.571Z,19.50
2022-08-17T04:04:07.690Z,19.50
2022-08-17T04:05:30.294Z,19.60
2022-08-17T04:06:56.667Z,19.60
2022-08-17T04:08:19.053Z,19.60
2022-08-17T04:09:42.860Z,19.60
2022-08-17T04:11:05.068Z,19.70
2022-08-17T04:12:30.954Z,19.70
2022-08-17T04:13:53.404Z,19.70
2022-08-17T04:15:16.605Z,19.80
2022-08-17T04:16:39.196Z,19.70
2022-08-17T04:18:01.259Z,19.80
2022-08-17T04:19:25.365Z,19.80
2022-08-17T04:20:47.902Z,19.80
2022-08-17T04:22:10.002Z,19.90
2022-08-17T04:23:52.453Z,19.90
2022-08-17T04:25:17.531Z,20.00
2022-08-17T04:26:54.071Z,20.10
2022-08-17T04:28:19.575Z,20.20
2022-08-17T04:29:55.055Z,20.50
2022-08-17T04:31:18.135Z,20.80
2022-08-17T04:33:06.380Z,21.20
2022-08-17T04:34:29.187Z,21.60
2022-08-17T04:35:58.345Z,21.80
2022-08-17T04:37:20.483Z,22.10
2022-08-17T04:38:45.036Z,22.50
2022-08-17T04:40:27.469Z,22.90
2022-08-17T04:42:09.190Z,23.40
2022-08-17T04:43:33.596Z,23.80
2022-08-17T04:44:55.664Z,24.30
2022-08-17T04:46:20.404Z,24.70
2022-08-17T04:47:42.426Z,25.00
2022-08-17T04:49:10.980Z,25.40
2022-08-17T04:50:35.282Z,25.60
2022-08-17T04:52:00.081Z,25.90
2022-08-17T04:53:27.076Z,26.20
2022-08-17T04:54:49.131Z,26.50
2022-08-17T04:56:16.725Z,26.70
2022-08-17T04:57:44.563Z,26.90
2022-08-17T04:59:18.806Z,27.20
2022-08-17T05:00:40.921Z,27.30
2022-08-17T05:02:03.113Z,27.60
2022-08-17T05:03:25.164Z,27.80
2022-08-17T05:04:47.219Z,28.00
2022-08-17T05:06:09.605Z,28.10
2022-08-17T05:07:31.808Z,28.20
2022-08-17T05:08:54.676Z,28.40
2022-08-17T05:10:17.282Z,28.50
2022-08-17T05:11:39.911Z,28.50
2022-08-17T05:13:09.010Z,28.30
2022-08-17T05:14:33.776Z,28.30
2022-08-17T05:16:00.900Z,28.40
2022-08-17T05:17:23.010Z,28.50
2022-08-17T05:18:45.633Z,28.60
2022-08-17T05:20:08.258Z,28.60
2022-08-17T05:21:30.377Z,28.50
2022-08-17T05:22:56.119Z,28.40
2022-08-17T05:24:40.765Z,28.30
2022-08-17T05:26:00.423Z,28.30
2022-08-17T05:27:24.259Z,28.40
2022-08-17T05:28:50.039Z,28.40
2022-08-17T05:30:14.556Z,28.20
2022-08-17T05:31:36.663Z,28.10
2022-08-17T05:33:03.330Z,28.10
2022-08-17T05:34:25.379Z,28.30
2022-08-17T05:35:50.717Z,28.30
2022-08-17T05:37:12.940Z,28.40
2022-08-17T05:38:35.706Z,28.40
2022-08-17T05:39:57.901Z,28.30
2022-08-17T05:41:20.138Z,28.40
2022-08-17T05:42:42.284Z,28.50
2022-08-17T05:44:05.544Z,28.60
2022-08-17T05:45:54.251Z,28.60
2022-08-17T05:47:09.994Z,28.60
2022-08-17T05:48:40.079Z,28.70
2022-08-17T05:50:02.909Z,28.90
2022-08-17T05:51:59.683Z,29.00
2022-08-17T05:53:38.360Z,29.20
2022-08-17T05:55:14.649Z,29.20
2022-08-17T05:56:54.991Z,29.30
2022-08-17T05:58:31.234Z,29.20
2022-08-17T06:00:30.342Z,29.20
2022-08-17T06:02:20.888Z,29.20
2022-08-17T06:03:48.685Z,29.10
2022-08-17T06:05:31.299Z,29.00
2022-08-17T06:07:02.722Z,28.90
2022-08-17T06:08:53.406Z,28.70
2022-08-17T06:10:32.239Z,28.40
2022-08-17T06:12:18.878Z,28.50
2022-08-17T06:14:05.291Z,28.20
2022-08-17T06:15:32.599Z,28.00
2022-08-17T06:17:04.395Z,27.90
2022-08-17T06:18:31.415Z,27.70
2022-08-17T06:20:16.064Z,27.40
2022-08-17T06:21:42.624Z,26.90
2022-08-17T06:23:14.371Z,26.80
2022-08-17T06:24:44.436Z,26.70
2022-08-17T06:26:17.358Z,26.50
2022-08-17T06:32:23.551Z,25.90
2022-08-17T06:35:13.027Z,25.80
2022-08-17T06:38:38.474Z,25.80
2022-08-17T06:40:22.170Z,25.80
2022-08-17T06:42:54.929Z,25.80
2022-08-17T06:44:42.189Z,25.80
2022-08-17T06:46:16.217Z,25.70
2022-08-17T06:47:50.955Z,25.70
2022-08-17T06:49:33.147Z,25.80
2022-08-17T06:51:04.154Z,25.80
2022-08-17T06:52:45.402Z,25.80
2022-08-17T06:54:18.710Z,25.80
2022-08-17T06:55:51.856Z,25.90
2022-08-17T06:57:22.218Z,25.90
2022-08-17T07:00:23.111Z,25.90
2022-08-17T07:01:47.403Z,25.90
2022-08-17T07:03:29.692Z,25.90
2022-08-17T07:04:52.507Z,26.10
2022-08-17T07:06:24.465Z,26.10
2022-08-17T07:08:17.018Z,26.10
2022-08-17T07:09:39.415Z,26.20
2022-08-17T07:11:07.118Z,26.20
2022-08-17T07:55:46.343Z,27.10
2022-08-17T07:57:13.273Z,27.10
2022-08-17T07:58:35.473Z,27.20
2022-08-17T08:00:01.489Z,27.30
2022-08-17T08:01:23.908Z,27.30
2022-08-17T08:03:11.707Z,27.40
2022-08-17T08:06:26.342Z,27.50
2022-08-17T08:07:49.566Z,27.60
2022-08-17T08:09:34.339Z,27.60
2022-08-17T08:11:12.626Z,27.70
2022-08-17T08:12:44.848Z,27.80
2022-08-17T08:14:29.571Z,27.70
2022-08-17T08:17:27.829Z,27.70
2022-08-17T08:25:36.379Z,27.90
2022-08-17T08:27:21.814Z,28.20
2022-08-17T08:28:49.460Z,28.10
2022-08-17T08:30:21.246Z,28.10
2022-08-17T08:33:29.433Z,28.20
2022-08-17T08:37:02.030Z,28.20
2022-08-17T08:45:04.254Z,28.30
2022-08-17T08:48:58.033Z,28.30
2022-08-17T08:50:38.608Z,28.30
2022-08-17T08:52:04.238Z,28.30
2022-08-17T08:53:37.738Z,28.50
2022-08-17T08:55:25.151Z,28.50
2022-08-17T09:08:25.977Z,28.60
2022-08-17T09:33:51.557Z,29.10
2022-08-17T09:39:00.259Z,29.00
2022-08-17T09:41:01.558Z,29.00
2022-08-17T09:42:44.650Z,29.00
2022-08-17T09:44:26.226Z,29.00
2022-08-17T09:46:02.669Z,29.00
2022-08-17T09:47:42.094Z,29.00
2022-08-17T09:49:25.439Z,29.20
2022-08-17T09:50:55.500Z,29.20
2022-08-17T09:52:30.360Z,29.30
2022-08-17T09:53:52.579Z,29.30
2022-08-17T09:55:14.729Z,29.30
2022-08-17T09:57:00.909Z,29.30
2022-08-17T09:58:56.367Z,29.40
2022-08-17T10:03:32.420Z,29.20
2022-08-17T10:05:13.585Z,29.40
2022-08-17T10:06:57.636Z,29.40
2022-08-17T10:08:22.982Z,29.40
2022-08-17T10:10:03.881Z,29.40
2022-08-17T10:11:53.743Z,29.40
2022-08-17T10:13:53.331Z,29.50
2022-08-17T10:15:29.136Z,29.60
2022-08-17T10:16:58.453Z,29.60
2022-08-17T10:19:10.902Z,29.70
2022-08-17T10:21:19.718Z,29.70
2022-08-17T10:23:20.740Z,29.60
2022-08-17T10:25:23.960Z,29.50
2022-08-17T10:26:57.036Z,29.50
2022-08-17T10:28:28.843Z,29.50
2022-08-17T10:29:59.851Z,29.60
2022-08-17T10:31:35.772Z,29.60
2022-08-17T10:33:05.112Z,29.60
2022-08-17T10:34:42.251Z,29.70
2022-08-17T10:36:23.248Z,29.60
2022-08-17T10:38:14.658Z,29.80
2022-08-17T10:39:52.483Z,29.80
2022-08-17T10:41:24.703Z,29.80
2022-08-17T10:42:56.088Z,29.80
2022-08-17T10:44:40.272Z,29.80
2022-08-17T10:46:30.863Z,29.70
2022-08-17T10:48:06.358Z,29.60
2022-08-17T10:49:33.877Z,29.40
2022-08-17T10:50:55.911Z,29.50
2022-08-17T10:52:20.768Z,29.60
2022-08-17T10:53:43.441Z,29.70
2022-08-17T10:55:14.153Z,29.80
2022-08-17T10:56:50.465Z,30.00
2022-08-17T10:58:21.953Z,30.00
2022-08-17T10:59:44.049Z,30.10
2022-08-17T11:01:11.411Z,30.00
2022-08-17T11:02:49.875Z,30.00
2022-08-17T11:04:18.296Z,29.80
2022-08-17T11:05:44.399Z,29.80
2022-08-17T11:07:51.356Z,29.80
2022-08-17T11:09:47.104Z,29.80
2022-08-17T11:11:43.444Z,29.80
2022-08-17T11:13:21.832Z,29.90
2022-08-17T11:15:15.586Z,30.00
2022-08-17T11:16:59.061Z,30.00
2022-08-17T11:18:28.365Z,29.90
2022-08-17T11:20:09.499Z,29.80
2022-08-17T11:21:57.323Z,29.60
2022-08-17T11:23:22.160Z,29.40
2022-08-17T11:24:51.697Z,29.50
2022-08-17T11:26:30.293Z,29.60
2022-08-17T11:28:22.200Z,29.70
2022-08-17T11:30:03.377Z,29.70
2022-08-17T11:31:40.198Z,29.60
2022-08-17T11:33:29.018Z,29.60
2022-08-17T11:35:12.044Z,29.60
2022-08-17T11:37:01.898Z,29.60
2022-08-17T11:38:51.703Z,29.70
2022-08-17T11:40:28.041Z,29.80
2022-08-17T11:42:10.269Z,29.70
2022-08-17T11:43:45.823Z,29.70
2022-08-17T11:45:42.007Z,29.80
2022-08-17T11:48:16.105Z,29.90
2022-08-17T11:50:15.284Z,29.80
2022-08-17T11:52:01.580Z,29.90
2022-08-17T11:53:39.270Z,29.80
2022-08-17T11:55:24.078Z,29.80
2022-08-17T11:56:45.791Z,29.80
2022-08-17T11:58:26.121Z,29.80
2022-08-17T11:59:48.246Z,29.70
2022-08-17T12:01:33.197Z,29.70
2022-08-17T12:03:31.847Z,29.70
2022-08-17T12:05:19.022Z,29.60
2022-08-17T12:06:54.846Z,29.60
2022-08-17T12:08:21.963Z,29.60
2022-08-17T12:09:49.195Z,29.60
2022-08-17T12:11:18.997Z,29.70
2022-08-17T12:13:10.288Z,29.80
2022-08-17T12:15:07.922Z,29.80
2022-08-17T12:16:20.966Z,29.90
2022-08-17T12:17:55.265Z,29.80
2022-08-17T12:19:21.796Z,29.80
2022-08-17T12:20:47.558Z,29.80
2022-08-17T12:22:32.141Z,29.80
2022-08-17T12:24:23.201Z,29.80
2022-08-17T12:25:51.420Z,29.80
2022-08-17T12:27:47.751Z,29.90
2022-08-17T12:29:17.901Z,30.00
2022-08-17T12:30:56.070Z,30.00
2022-08-17T12:32:20.390Z,30.10
2022-08-17T12:33:47.392Z,30.10
2022-08-17T12:35:22.943Z,30.10
2022-08-17T12:36:46.310Z,30.00
2022-08-17T12:38:32.163Z,30.00
2022-08-17T12:40:16.671Z,30.00
2022-08-17T12:41:41.545Z,30.10
2022-08-17T12:43:20.263Z,30.10
2022-08-17T12:44:50.050Z,30.10
2022-08-17T12:46:17.437Z,30.20
2022-08-17T12:47:41.149Z,30.20
2022-08-17T12:49:19.743Z,30.20
2022-08-17T12:50:45.155Z,30.20
2022-08-17T12:52:26.738Z,30.10
2022-08-17T12:53:54.298Z,30.10
2022-08-17T12:55:23.020Z,30.10
2022-08-17T12:56:48.357Z,30.10
2022-08-17T12:58:14.369Z,30.10
2022-08-17T12:59:41.566Z,30.00
2022-08-17T13:01:11.035Z,29.80
2022-08-17T13:02:59.229Z,29.70
2022-08-17T13:04:26.621Z,29.60
2022-08-17T13:05:56.772Z,29.60
2022-08-17T13:07:35.889Z,29.70
2022-08-17T13:09:11.305Z,29.70
2022-08-17T13:10:37.703Z,29.80
2022-08-17T13:12:03.276Z,29.90
2022-08-17T13:13:32.205Z,29.90
2022-08-17T13:14:54.476Z,29.90
2022-08-17T13:16:23.531Z,29.80
2022-08-17T13:18:00.498Z,29.80
2022-08-17T13:19:29.809Z,29.60
2022-08-17T13:21:02.732Z,29.30
2022-08-17T13:22:27.899Z,29.20
2022-08-17T13:24:03.969Z,29.20
2022-08-17T13:25:27.663Z,29.20
2022-08-17T13:26:51.958Z,29.30
2022-08-17T13:28:29.881Z,29.20
2022-08-17T13:30:05.891Z,29.20
2022-08-17T13:31:28.114Z,29.20
2022-08-17T13:32:50.511Z,29.20
2022-08-17T13:34:25.282Z,29.10
2022-08-17T13:35:49.970Z,29.10
2022-08-17T13:37:28.848Z,29.20
2022-08-17T13:38:51.639Z,29.20
2022-08-17T13:40:13.867Z,29.20
2022-08-17T13:41:37.683Z,29.20
2022-08-17T13:42:59.790Z,29.30
2022-08-17T13:44:37.385Z,29.20
2022-08-17T13:46:10.325Z,29.30
2022-08-17T13:47:34.268Z,29.30
2022-08-17T13:49:11.808Z,29.30
2022-08-17T13:50:38.070Z,29.30
2022-08-17T13:52:00.861Z,29.30
2022-08-17T13:53:31.170Z,29.30
2022-08-17T13:54:55.682Z,29.30
2022-08-17T13:56:38.056Z,29.30
2022-08-17T13:58:04.214Z,29.30
2022-08-17T13:59:55.011Z,29.30
2022-08-17T14:01:43.920Z,29.30
2022-08-17T14:03:06.294Z,29.30
2022-08-17T14:04:34.289Z,29.30
2022-08-17T14:05:56.818Z,29.20
2022-08-17T14:07:19.599Z,29.20
2022-08-17T14:08:41.675Z,29.20
2022-08-17T14:10:09.533Z,29.30
2022-08-17T14:11:31.798Z,29.40
2022-08-17T14:12:54.141Z,29.40
2022-08-17T14:14:17.084Z,29.40
2022-08-17T14:15:56.282Z,29.50
2022-08-17T14:17:19.113Z,29.60
2022-08-17T14:18:56.787Z,29.70
2022-08-17T14:20:21.409Z,29.70
2022-08-17T14:21:46.488Z,29.60
2022-08-17T14:23:08.734Z,29.60
2022-08-17T14:24:33.622Z,29.60
2022-08-17T14:25:55.676Z,29.50
2022-08-17T14:27:19.391Z,29.40
2022-08-17T14:28:43.023Z,29.40
2022-08-17T14:30:17.698Z,29.30
2022-08-17T14:31:40.575Z,29.30
2022-08-17T14:33:05.895Z,29.30
2022-08-17T14:34:28.853Z,29.40
2022-08-17T14:35:52.985Z,29.40
2022-08-17T14:37:16.053Z,29.40
2022-08-17T14:38:38.186Z,29.30
2022-08-17T14:40:05.363Z,29.40
2022-08-17T14:41:27.461Z,29.50
2022-08-17T14:42:49.995Z,29.50
2022-08-17T14:44:13.041Z,29.50
2022-08-17T14:45:35.246Z,29.40
2022-08-17T14:46:57.313Z,29.20
2022-08-17T14:48:19.398Z,29.20
2022-08-17T14:49:42.331Z,29.30
2022-08-17T14:51:05.356Z,29.30
2022-08-17T14:52:27.798Z,29.30
2022-08-17T14:53:50.536Z,29.30
2022-08-17T14:55:13.684Z,29.40
2022-08-17T14:56:37.973Z,29.40
2022-08-17T14:58:00.332Z,29.40
2022-08-17T14:59:22.522Z,29.40
2022-08-17T15:00:44.703Z,29.30
2022-08-17T15:02:06.959Z,29.20
2022-08-17T15:03:29.198Z,29.20
2022-08-17T15:04:51.382Z,29.10
2022-08-17T15:06:14.815Z,29.10
2022-08-17T15:07:38.637Z,29.20
2022-08-17T15:09:01.443Z,29.20
2022-08-17T15:10:25.825Z,29.20
2022-08-17T15:11:48.200Z,29.10
2022-08-17T15:13:20.928Z,29.10
2022-08-17T15:14:43.100Z,29.00
2022-08-17T15:16:05.399Z,28.90
2022-08-17T15:17:44.677Z,28.90
2022-08-17T15:19:08.647Z,28.80
2022-08-17T15:20:30.979Z,28.80
2022-08-17T15:21:53.066Z,28.80
2022-08-17T15:23:18.144Z,28.80
2022-08-17T15:24:40.417Z,28.80
2022-08-17T15:26:02.513Z,28.80
2022-08-17T15:27:32.603Z,28.70
2022-08-17T15:28:56.039Z,28.70
2022-08-17T15:30:18.823Z,28.70
2022-08-17T15:31:41.199Z,28.70
2022-08-17T15:33:03.755Z,28.70
2022-08-17T15:34:25.973Z,28.70
2022-08-17T15:35:52.197Z,28.60
2022-08-17T15:37:14.344Z,28.60
2022-08-17T15:38:39.557Z,28.60
2022-08-17T15:40:01.793Z,28.60
2022-08-17T15:41:24.275Z,28.60
2022-08-17T15:42:46.468Z,28.50
2022-08-17T15:44:08.564Z,28.50
2022-08-17T15:45:30.865Z,28.50
2022-08-17T15:46:52.985Z,28.50
2022-08-17T15:48:15.395Z,28.50
2022-08-17T15:49:40.521Z,28.50
2022-08-17T15:51:02.600Z,28.50
2022-08-17T15:52:26.930Z,28.50
2022-08-17T15:53:51.944Z,28.50
2022-08-17T15:55:15.395Z,28.60
2022-08-17T15:56:39.294Z,28.60
2022-08-17T15:58:01.564Z,28.60
2022-08-17T15:59:23.629Z,28.70
2022-08-17T16:00:52.094Z,28.60
2022-08-17T16:03:14.515Z,28.60
2022-08-17T16:04:06.717Z,28.70
2022-08-17T16:05:31.258Z,28.70
2022-08-17T16:06:53.821Z,28.70
2022-08-17T16:08:20.876Z,28.60
2022-08-17T16:09:44.597Z,28.50
2022-08-17T16:11:08.102Z,28.50
2022-08-17T16:12:30.317Z,28.40
2022-08-17T16:13:54.627Z,28.20
2022-08-17T16:15:19.104Z,28.20
2022-08-17T16:16:41.841Z,28.10
2022-08-17T16:18:05.226Z,28.00
2022-08-17T16:19:27.327Z,27.90
2022-08-17T16:20:50.240Z,27.80
2022-08-17T16:22:14.446Z,27.80
2022-08-17T16:23:36.613Z,27.70
2022-08-17T16:24:59.530Z,27.70
2022-08-17T16:26:23.048Z,27.60
2022-08-17T16:27:47.997Z,27.60
2022-08-17T16:29:10.646Z,27.60
2022-08-17T16:30:33.909Z,27.50
2022-08-17T16:31:57.073Z,27.50
2022-08-17T16:33:19.778Z,27.50
2022-08-17T16:34:43.278Z,27.40
2022-08-17T16:36:08.807Z,27.40
2022-08-17T16:37:30.995Z,27.30
2022-08-17T16:38:57.191Z,27.30
2022-08-17T16:40:19.343Z,27.30
2022-08-17T16:41:47.757Z,27.20
2022-08-17T16:43:10.568Z,27.20
2022-08-17T16:44:32.950Z,27.10
2022-08-17T16:45:55.088Z,27.10
2022-08-17T16:47:19.323Z,27.00
2022-08-17T16:48:41.393Z,27.00
2022-08-17T16:50:08.697Z,26.90
2022-08-17T16:51:31.082Z,26.90
2022-08-17T16:53:02.824Z,26.80
2022-08-17T16:54:25.070Z,26.80
2022-08-17T16:55:48.827Z,26.70
2022-08-17T16:57:12.166Z,26.70
2022-08-17T16:58:34.417Z,26.70
2022-08-17T16:59:56.591Z,26.70
2022-08-17T17:01:19.659Z,26.60
2022-08-17T17:02:49.387Z,26.60
2022-08-17T17:04:15.508Z,26.60
2022-08-17T17:05:57.617Z,26.60
2022-08-17T17:07:46.163Z,26.50
2022-08-17T17:09:16.443Z,26.50
2022-08-17T17:10:48.947Z,26.30
2022-08-17T17:12:16.404Z,26.30
2022-08-17T17:13:47.190Z,26.20
2022-08-17T17:15:10.383Z,26.20
2022-08-17T17:17:02.656Z,26.20
2022-08-17T17:18:55.380Z,26.10
2022-08-17T17:20:25.390Z,26.10
2022-08-17T17:22:14.216Z,26.10
2022-08-17T17:23:56.416Z,26.10
2022-08-17T17:25:40.829Z,26.10
2022-08-17T17:27:26.362Z,26.20
2022-08-17T17:29:05.097Z,26.20
2022-08-17T17:30:39.919Z,26.20
2022-08-17T17:32:20.959Z,26.10
2022-08-17T17:33:48.416Z,26.10
2022-08-17T17:35:25.385Z,26.00
2022-08-17T17:36:55.049Z,26.00
2022-08-17T17:38:23.579Z,25.90
2022-08-17T17:39:55.349Z,25.80
2022-08-17T17:41:26.358Z,25.80
2022-08-17T17:42:53.565Z,25.80
2022-08-17T17:44:20.144Z,25.80
2022-08-17T17:45:48.127Z,25.70
2022-08-17T17:47:11.852Z,25.70
2022-08-17T17:48:34.126Z,25.70
2022-08-17T17:49:56.325Z,25.60
2022-08-17T17:52:09.146Z,25.60
2022-08-17T17:53:45.461Z,25.50
2022-08-17T17:55:22.381Z,25.50
2022-08-17T17:57:04.033Z,25.50
2022-08-17T17:58:52.829Z,25.40
2022-08-17T18:00:21.888Z,25.40
2022-08-17T18:02:05.360Z,25.40
2022-08-17T18:04:04.664Z,25.30
2022-08-17T18:06:16.314Z,25.30
2022-08-17T18:07:47.680Z,25.20
2022-08-17T18:09:21.679Z,25.20
2022-08-17T18:10:57.188Z,25.20
2022-08-17T18:12:54.453Z,25.20
2022-08-17T18:14:25.189Z,25.20
2022-08-17T18:15:51.597Z,25.10
2022-08-17T18:17:14.641Z,25.10
2022-08-17T18:18:44.594Z,25.10
2022-08-17T18:20:07.102Z,25.10
2022-08-17T18:21:38.403Z,25.10
2022-08-17T18:23:00.575Z,25.00
2022-08-17T18:24:34.858Z,25.00
2022-08-17T18:25:58.618Z,25.00
2022-08-17T18:27:23.830Z,25.00
2022-08-17T18:28:51.066Z,24.90
2022-08-17T18:30:13.150Z,24.90
2022-08-17T18:31:35.213Z,24.90
2022-08-17T18:33:24.617Z,24.90
2022-08-17T18:34:49.356Z,24.90
2022-08-17T18:36:13.300Z,24.80
2022-08-17T18:37:46.436Z,24.80
2022-08-17T18:39:28.502Z,24.80
2022-08-17T18:41:23.381Z,24.80
2022-08-17T18:42:56.291Z,24.70
2022-08-17T18:44:18.322Z,24.70
2022-08-17T18:45:47.846Z,24.70
2022-08-17T18:47:36.017Z,24.60
2022-08-17T18:49:02.131Z,24.60
2022-08-17T18:50:39.880Z,24.60
2022-08-17T18:52:23.344Z,24.60
2022-08-17T18:53:45.482Z,24.50
2022-08-17T18:55:29.280Z,24.50
2022-08-17T18:56:59.987Z,24.50
2022-08-17T18:58:25.334Z,24.40
2022-08-17T18:59:48.305Z,24.40
2022-08-17T19:01:21.402Z,24.40
2022-08-17T19:03:09.882Z,24.40
2022-08-17T19:04:54.416Z,24.40
2022-08-17T19:06:21.976Z,24.30
2022-08-17T19:07:46.947Z,24.30
2022-08-17T19:09:34.049Z,24.30
2022-08-17T19:11:04.408Z,24.30
2022-08-17T19:12:30.184Z,24.30
2022-08-17T19:13:57.443Z,24.20
2022-08-17T19:15:30.017Z,24.20
2022-08-17T19:16:57.329Z,24.20
2022-08-17T19:18:25.780Z,24.20
2022-08-17T19:20:17.127Z,24.20
2022-08-17T19:21:47.482Z,24.10
2022-08-17T19:23:21.179Z,24.10
2022-08-17T19:24:47.543Z,24.10
2022-08-17T19:26:54.225Z,24.00
2022-08-17T19:28:22.386Z,24.00
2022-08-17T19:29:56.854Z,24.00
2022-08-17T19:31:26.116Z,24.00
2022-08-17T19:32:48.423Z,24.00
2022-08-17T19:34:17.122Z,24.00
2022-08-17T19:36:08.098Z,24.00
2022-08-17T19:37:58.543Z,23.90
2022-08-17T19:39:38.709Z,23.90
2022-08-17T19:41:03.597Z,23.90
2022-08-17T19:42:37.134Z,23.90
2022-08-17T19:44:11.210Z,23.80
2022-08-17T19:45:37.715Z,23.80
2022-08-17T19:47:10.557Z,23.70
2022-08-17T19:48:51.103Z,23.70
2022-08-17T19:50:41.529Z,23.70
2022-08-17T19:52:14.899Z,23.70
2022-08-17T19:54:04.965Z,23.70
2022-08-17T19:55:59.849Z,23.60
2022-08-17T19:57:36.946Z,23.60
2022-08-17T19:59:12.002Z,23.60
2022-08-17T20:00:40.503Z,23.60
2022-08-17T20:02:27.401Z,23.60
2022-08-17T20:04:01.209Z,23.60
2022-08-17T20:06:09.145Z,23.50
2022-08-17T20:07:38.709Z,23.50
2022-08-17T20:09:14.977Z,23.50
2022-08-17T20:10:57.982Z,23.50
2022-08-17T20:12:29.069Z,23.40
2022-08-17T20:14:06.857Z,23.40
2022-08-17T20:15:31.608Z,23.40
2022-08-17T20:16:53.976Z,23.40
2022-08-17T20:18:46.091Z,23.40
2022-08-17T20:20:27.890Z,23.30
2022-08-17T20:22:05.254Z,23.30
2022-08-17T20:23:40.759Z,23.30
2022-08-17T20:25:20.122Z,23.20
2022-08-17T20:27:09.800Z,23.20
2022-08-17T20:28:35.246Z,23.20
2022-08-17T20:30:33.079Z,23.20
2022-08-17T20:31:55.069Z,23.10
2022-08-17T20:33:26.473Z,23.10
2022-08-17T20:34:48.716Z,23.10
2022-08-17T20:36:20.034Z,23.10
2022-08-17T20:37:52.384Z,23.10
2022-08-17T20:39:40.862Z,23.10
2022-08-17T20:41:03.809Z,23.10
2022-08-17T20:42:27.068Z,23.10
2022-08-17T20:44:01.712Z,23.00
2022-08-17T20:45:26.122Z,23.00
2022-08-17T20:47:05.762Z,23.00
2022-08-17T20:48:38.326Z,23.00
2022-08-17T20:50:11.923Z,23.00
2022-08-17T20:51:43.075Z,22.90
2022-08-17T20:53:47.703Z,22.90
2022-08-17T20:55:36.240Z,22.90
2022-08-17T20:57:32.447Z,22.90
2022-08-17T20:58:54.531Z,22.90
2022-08-17T21:00:28.842Z,22.80
2022-08-17T21:02:08.937Z,22.80
2022-08-17T21:03:50.481Z,22.80
2022-08-17T21:05:37.139Z,22.80
2022-08-17T21:07:43.038Z,22.80
2022-08-17T21:09:29.823Z,22.80
2022-08-17T21:10:53.192Z,22.70
2022-08-17T21:12:39.201Z,22.80
2022-08-17T21:14:24.658Z,22.70
2022-08-17T21:15:53.191Z,22.70
2022-08-17T21:17:29.469Z,22.70
2022-08-17T21:19:16.889Z,22.70
2022-08-17T21:21:00.133Z,22.70
2022-08-17T21:22:42.119Z,22.70
2022-08-17T21:24:10.277Z,22.70
2022-08-17T21:25:48.880Z,22.70
2022-08-17T21:27:36.410Z,22.70
2022-08-17T21:29:31.447Z,22.70
2022-08-17T21:30:58.496Z,22.70